createdAt,value
2019-03-19T00:00:54.159Z,11.77
2019-03-19T00:03:28.847Z,12.97
2019-03-19T00:06:03.121Z,15.13
2019-03-19T00:08:33.258Z,14.43
2019-03-19T00:11:06.509Z,11.83
2019-03-19T00:13:40.122Z,10.17
2019-03-19T00:18:44.834Z,11.03
2019-03-19T00:21:17.584Z,12.97
2019-03-19T00:23:50.547Z,12.53
2019-03-19T00:26:24.171Z,12.63
2019-03-19T00:28:54.699Z,7.30
2019-03-19T00:31:27.299Z,11.80
2019-03-19T00:34:01.066Z,12.23
2019-03-19T00:36:33.365Z,11.27
2019-03-19T00:39:07.390Z,13.00
2019-03-19T00:41:39.816Z,10.60
2019-03-19T00:44:12.899Z,16.97
2019-03-19T00:46:45.918Z,17.77
2019-03-19T00:49:18.265Z,18.53
2019-03-19T00:51:51.359Z,15.87
2019-03-19T00:54:25.479Z,13.33
2019-03-19T00:56:59.698Z,10.10
2019-03-19T00:59:33.492Z,23.63
2019-03-19T01:02:07.488Z,17.40
2019-03-19T01:04:42.162Z,9.77
2019-03-19T01:07:15.701Z,18.90
2019-03-19T01:09:48.978Z,10.77
2019-03-19T01:12:23.039Z,18.87
2019-03-19T01:14:56.288Z,17.37
2019-03-19T01:17:30.454Z,18.03
2019-03-19T01:20:04.221Z,15.17
2019-03-19T01:22:37.975Z,14.97
2019-03-19T01:25:12.531Z,12.90
2019-03-19T01:27:46.181Z,22.80
2019-03-19T01:30:20.739Z,17.03
2019-03-19T01:32:53.396Z,22.20
2019-03-19T01:35:26.519Z,14.47
2019-03-19T01:38:00.187Z,17.37
2019-03-19T01:40:37.334Z,15.90
2019-03-19T01:43:10.559Z,13.27
2019-03-19T01:45:43.426Z,13.57
2019-03-19T01:48:16.977Z,17.17
2019-03-19T01:50:50.036Z,14.10
2019-03-19T01:53:22.999Z,12.73
2019-03-19T01:56:04.822Z,13.07
2019-03-19T01:58:32.638Z,17.07
2019-03-19T02:01:10.214Z,10.03
2019-03-19T02:03:43.463Z,18.60
2019-03-19T02:06:18.123Z,18.73
2019-03-19T02:08:51.340Z,17.97
2019-03-19T02:11:25.403Z,12.67
2019-03-19T02:13:58.976Z,18.83
2019-03-19T02:16:32.896Z,18.33
2019-03-19T02:19:07.844Z,18.00
2019-03-19T02:21:41.935Z,17.17
2019-03-19T02:24:15.901Z,14.20
2019-03-19T02:26:49.210Z,12.57
2019-03-19T02:29:22.585Z,14.73
2019-03-19T02:31:56.986Z,22.03
2019-03-19T02:34:30.254Z,13.83
2019-03-19T02:37:03.826Z,13.87
2019-03-19T02:39:37.187Z,15.87
2019-03-19T02:42:11.916Z,18.93
2019-03-19T02:44:45.693Z,11.60
2019-03-19T02:47:20.244Z,11.87
2019-03-19T02:49:53.651Z,12.70
2019-03-19T02:52:28.387Z,26.20
2019-03-19T02:55:01.357Z,10.47
2019-03-19T02:57:34.487Z,12.20
2019-03-19T03:00:09.528Z,20.90
2019-03-19T03:02:46.122Z,11.90
2019-03-19T03:05:23.228Z,24.20
2019-03-19T03:07:57.250Z,17.70
2019-03-19T03:10:31.624Z,17.87
2019-03-19T03:13:05.545Z,11.53
2019-03-19T03:15:39.984Z,10.33
2019-03-19T03:18:14.030Z,18.03
2019-03-19T03:20:47.501Z,22.37
2019-03-19T03:23:21.161Z,13.40
2019-03-19T03:25:55.010Z,15.73
2019-03-19T03:28:28.730Z,26.80
2019-03-19T03:31:02.931Z,13.30
2019-03-19T03:33:40.379Z,22.57
2019-03-19T03:36:14.226Z,22.33
2019-03-19T03:41:15.780Z,14.63
2019-03-19T03:43:49.559Z,16.77
2019-03-19T03:46:23.573Z,15.30
2019-03-19T03:48:59.212Z,19.00
2019-03-19T03:51:34.660Z,18.83
2019-03-19T03:54:15.612Z,17.50
2019-03-19T03:57:02.086Z,18.20
2019-03-19T03:59:33.292Z,17.27
2019-03-19T04:02:12.840Z,15.57
2019-03-19T04:04:54.758Z,14.87
2019-03-19T04:07:38.611Z,19.57
2019-03-19T04:10:13.687Z,18.07
2019-03-19T04:12:47.249Z,16.80
2019-03-19T04:15:21.296Z,24.17
2019-03-19T04:17:54.624Z,15.93
2019-03-19T04:20:28.456Z,19.77
2019-03-19T04:23:01.731Z,18.07
2019-03-19T04:25:34.617Z,18.23
2019-03-19T04:28:09.068Z,17.23
2019-03-19T04:30:42.501Z,17.50
2019-03-19T04:33:16.211Z,17.70
2019-03-19T04:35:51.974Z,9.67
2019-03-19T04:38:25.199Z,13.83
2019-03-19T04:40:58.842Z,13.17
2019-03-19T04:43:32.335Z,20.37
2019-03-19T04:46:06.657Z,17.73
2019-03-19T04:48:41.460Z,18.87
2019-03-19T04:51:15.359Z,20.30
2019-03-19T04:53:49.180Z,17.77
2019-03-19T04:56:22.291Z,18.03
2019-03-19T04:58:58.554Z,26.80
2019-03-19T05:01:32.463Z,19.27
2019-03-19T05:04:08.319Z,21.53
2019-03-19T05:06:46.292Z,21.47
2019-03-19T05:09:20.937Z,29.63
2019-03-19T05:12:11.758Z,17.30
2019-03-19T05:18:05.694Z,24.37
2019-03-19T05:20:39.375Z,21.90
2019-03-19T05:23:12.679Z,19.57
2019-03-19T05:25:44.976Z,17.80
2019-03-19T05:28:18.093Z,11.50
2019-03-19T05:30:49.753Z,18.40
2019-03-19T05:33:22.125Z,19.27
2019-03-19T05:35:54.362Z,17.77
2019-03-19T05:38:26.203Z,28.77
2019-03-19T05:40:58.298Z,28.47
2019-03-19T05:43:30.986Z,24.37
2019-03-19T05:46:04.210Z,22.43
2019-03-19T05:48:37.144Z,26.70
2019-03-19T05:51:09.217Z,27.47
2019-03-19T05:53:42.235Z,22.63
2019-03-19T05:56:15.557Z,21.47
2019-03-19T05:58:47.690Z,22.57
2019-03-19T06:01:21.263Z,27.93
2019-03-19T06:03:53.945Z,22.00
2019-03-19T06:06:27.413Z,21.47
2019-03-19T06:09:00.346Z,25.23
2019-03-19T06:11:33.721Z,16.73
2019-03-19T06:14:06.955Z,27.17
2019-03-19T06:16:39.312Z,25.87
2019-03-19T06:19:12.519Z,23.87
2019-03-19T06:21:45.928Z,24.47
2019-03-19T06:24:18.486Z,22.80
2019-03-19T06:26:52.841Z,22.90
2019-03-19T06:29:28.086Z,23.90
2019-03-19T06:32:00.692Z,19.37
2019-03-19T06:34:33.989Z,27.57
2019-03-19T06:37:06.127Z,27.57
2019-03-19T06:39:39.113Z,31.17
2019-03-19T06:42:11.671Z,27.37
2019-03-19T06:44:43.781Z,25.27
2019-03-19T06:47:15.771Z,38.60
2019-03-19T06:49:47.430Z,31.73
2019-03-19T06:52:26.113Z,37.20
2019-03-19T06:54:57.846Z,34.53
2019-03-19T06:57:38.886Z,36.23
2019-03-19T07:00:04.239Z,35.83
2019-03-19T07:02:37.397Z,40.27
2019-03-19T07:05:09.555Z,38.33
2019-03-19T07:07:41.373Z,42.53
2019-03-19T07:10:13.455Z,36.93
2019-03-19T07:12:45.066Z,36.90
2019-03-19T07:15:20.918Z,39.43
2019-03-19T07:18:00.688Z,40.63
2019-03-19T07:20:38.947Z,45.10
2019-03-19T07:23:21.905Z,46.73
2019-03-19T07:25:53.536Z,58.20
2019-03-19T07:28:28.564Z,58.90
2019-03-19T07:31:00.554Z,47.43
2019-03-19T07:33:32.188Z,49.40
2019-03-19T07:36:06.208Z,49.80
2019-03-19T07:38:38.954Z,46.37
2019-03-19T07:41:13.574Z,44.63
2019-03-19T07:43:46.527Z,50.57
2019-03-19T07:46:18.842Z,37.60
2019-03-19T07:48:52.310Z,46.90
2019-03-19T07:51:24.148Z,45.10
2019-03-19T07:53:57.123Z,42.27
2019-03-19T07:56:29.493Z,38.87
2019-03-19T07:59:02.061Z,40.17
2019-03-19T08:01:34.370Z,36.63
2019-03-19T08:06:37.406Z,36.03
2019-03-19T08:09:10.674Z,37.37
2019-03-19T08:11:44.825Z,25.93
2019-03-19T08:14:18.787Z,31.47
2019-03-19T08:16:50.402Z,25.53
2019-03-19T08:19:23.026Z,33.20
2019-03-19T08:21:55.185Z,23.53
2019-03-19T08:24:27.708Z,28.83
2019-03-19T08:27:00.813Z,25.70
2019-03-19T08:29:35.285Z,20.73
2019-03-19T08:32:07.827Z,25.23
2019-03-19T08:34:40.747Z,29.13
2019-03-19T08:37:12.337Z,27.83
2019-03-19T08:39:43.930Z,19.97
2019-03-19T08:42:15.784Z,19.20
2019-03-19T08:44:49.320Z,21.77
2019-03-19T08:47:21.117Z,27.00
2019-03-19T08:53:20.725Z,18.50
2019-03-19T08:59:05.515Z,22.60
2019-03-19T09:01:43.123Z,20.00
2019-03-19T09:04:26.171Z,17.67
2019-03-19T09:07:13.265Z,23.13
2019-03-19T09:09:59.183Z,20.87
2019-03-19T09:12:42.309Z,24.73
2019-03-19T09:15:25.572Z,18.37
2019-03-19T09:18:08.587Z,20.47
2019-03-19T09:20:54.053Z,19.73
2019-03-19T09:23:42.489Z,16.00
2019-03-19T09:26:29.069Z,18.50
2019-03-19T09:29:17.057Z,14.73
2019-03-19T09:31:58.449Z,16.80
2019-03-19T09:34:40.628Z,21.23
2019-03-19T09:37:22.782Z,13.57
2019-03-19T09:40:08.058Z,15.57
2019-03-19T09:42:52.781Z,17.07
2019-03-19T09:45:35.148Z,18.40
2019-03-19T09:48:17.353Z,20.13
2019-03-19T09:51:00.914Z,20.73
2019-03-19T09:53:46.168Z,20.77
2019-03-19T09:56:28.057Z,16.03
2019-03-19T09:59:11.954Z,25.13
2019-03-19T10:01:55.057Z,21.17
2019-03-19T10:04:38.080Z,15.43
2019-03-19T10:07:21.115Z,11.03
2019-03-19T10:10:05.705Z,11.87
2019-03-19T10:12:48.361Z,13.43
2019-03-19T10:15:36.041Z,10.13
2019-03-19T10:18:20.915Z,11.20
2019-03-19T10:24:06.399Z,9.77
2019-03-19T10:26:49.698Z,9.90
2019-03-19T10:32:18.415Z,13.43
2019-03-19T10:35:00.927Z,13.00
2019-03-19T10:37:48.208Z,9.47
2019-03-19T10:40:30.055Z,12.00
2019-03-19T10:43:12.110Z,9.93
2019-03-19T10:45:55.298Z,13.23
2019-03-19T10:48:37.529Z,10.60
2019-03-19T10:51:19.909Z,10.73
2019-03-19T10:54:02.632Z,10.17
2019-03-19T10:56:49.577Z,8.70
2019-03-19T10:59:34.246Z,14.20
2019-03-19T11:08:14.032Z,9.83
2019-03-19T11:13:45.356Z,12.20
2019-03-19T11:16:27.123Z,12.20
2019-03-19T11:19:09.379Z,11.70
2019-03-19T11:21:51.351Z,10.33
2019-03-19T11:24:34.462Z,9.17
2019-03-19T11:27:16.635Z,11.73
2019-03-19T11:29:48.435Z,9.50
2019-03-19T11:32:31.463Z,10.73
2019-03-19T11:35:32.038Z,10.20
2019-03-19T11:41:10.167Z,10.43
2019-03-19T11:43:58.514Z,10.10
2019-03-19T11:49:41.491Z,9.70
2019-03-19T11:55:28.249Z,12.60
2019-03-19T11:58:12.324Z,12.23
2019-03-19T12:00:58.961Z,14.17
2019-03-19T12:06:37.169Z,9.20
2019-03-19T12:12:13.862Z,11.37
2019-03-19T12:15:02.928Z,10.97
2019-03-19T12:17:45.940Z,14.43
2019-03-19T12:20:29.564Z,10.30
2019-03-19T12:23:12.535Z,13.47
2019-03-19T12:25:58.256Z,11.03
2019-03-19T12:31:41.647Z,12.10
2019-03-19T12:34:24.972Z,10.43
2019-03-19T12:37:08.117Z,12.47
2019-03-19T12:39:50.506Z,11.43
2019-03-19T12:42:33.613Z,10.70
2019-03-19T12:48:14.190Z,9.30
2019-03-19T12:51:02.282Z,8.77
2019-03-19T12:53:51.570Z,14.03
2019-03-19T12:56:40.033Z,10.97
2019-03-19T12:59:28.888Z,9.57
2019-03-19T13:02:13.074Z,9.97
2019-03-19T13:07:42.885Z,11.07
2019-03-19T13:10:26.227Z,9.97
2019-03-19T13:16:01.901Z,12.03
2019-03-19T13:18:49.425Z,11.13
2019-03-19T13:21:33.317Z,8.83
2019-03-19T13:24:19.202Z,9.33
2019-03-19T13:27:10.693Z,6.83
2019-03-19T13:29:43.728Z,9.43
2019-03-19T13:32:28.366Z,8.53
2019-03-19T13:35:02.077Z,9.73
2019-03-19T13:37:45.607Z,8.80
2019-03-19T13:40:29.942Z,6.70
2019-03-19T13:43:15.212Z,7.23
2019-03-19T13:48:54.395Z,7.83
2019-03-19T13:51:43.773Z,8.67
2019-03-19T13:54:33.188Z,7.97
2019-03-19T13:57:16.741Z,7.73
2019-03-19T14:00:03.151Z,9.87
2019-03-19T14:02:47.275Z,9.03
2019-03-19T14:05:31.365Z,8.03
2019-03-19T14:08:14.884Z,10.70
2019-03-19T14:11:00.831Z,11.63
2019-03-19T14:13:44.509Z,10.97
2019-03-19T14:16:28.307Z,9.37
2019-03-19T14:19:16.413Z,9.40
2019-03-19T14:28:04.407Z,9.67
2019-03-19T14:30:53.130Z,10.40
2019-03-19T14:33:38.328Z,9.97
2019-03-19T14:36:21.888Z,11.60
2019-03-19T14:44:49.277Z,13.23
2019-03-19T14:47:34.545Z,10.67
2019-03-19T14:53:14.674Z,12.97
2019-03-19T14:58:55.486Z,12.13
2019-03-19T15:01:44.108Z,9.47
2019-03-19T15:04:28.913Z,13.83
2019-03-19T15:07:16.883Z,9.67
2019-03-19T15:10:00.662Z,8.43
2019-03-19T15:12:43.255Z,8.90
2019-03-19T15:15:26.304Z,7.80
2019-03-19T15:24:01.081Z,10.60
2019-03-19T15:26:48.627Z,14.30
2019-03-19T15:32:24.378Z,11.20
2019-03-19T15:37:57.152Z,14.67
2019-03-19T15:40:45.833Z,11.63
2019-03-19T15:46:37.204Z,12.17
2019-03-19T15:52:08.363Z,16.77
2019-03-19T15:54:58.565Z,8.07
2019-03-19T15:57:46.531Z,11.27
2019-03-19T16:00:30.150Z,10.40
2019-03-19T16:06:10.203Z,9.83
2019-03-19T16:11:51.101Z,13.63
2019-03-19T16:14:34.278Z,12.43
2019-03-19T16:17:18.151Z,8.67
2019-03-19T16:23:07.853Z,10.10
2019-03-19T16:28:47.645Z,12.63
2019-03-19T16:37:36.431Z,13.57
2019-03-19T16:40:25.727Z,11.87
2019-03-19T16:43:09.328Z,12.17
2019-03-19T16:45:52.989Z,13.90
2019-03-19T16:51:29.519Z,14.37
2019-03-19T16:54:14.666Z,12.13
2019-03-19T16:56:59.809Z,9.47
2019-03-19T17:02:44.414Z,16.57
2019-03-19T17:05:26.979Z,13.70
2019-03-19T17:08:09.956Z,11.90
2019-03-19T17:10:52.486Z,12.07
2019-03-19T17:16:31.919Z,15.07
2019-03-19T17:28:07.546Z,16.20
2019-03-19T17:33:47.333Z,14.97
2019-03-19T17:36:18.097Z,16.90
2019-03-19T17:39:08.044Z,12.13
2019-03-19T17:41:50.683Z,11.27
2019-03-19T17:44:40.432Z,13.60
2019-03-19T17:47:30.707Z,15.30
2019-03-19T17:50:11.574Z,13.87
2019-03-19T17:52:51.567Z,14.37
2019-03-19T17:55:27.751Z,18.57
2019-03-19T17:58:02.026Z,12.20
2019-03-19T18:00:37.093Z,15.30
2019-03-19T18:03:10.994Z,12.93
2019-03-19T18:05:43.694Z,16.00
2019-03-19T18:08:15.919Z,17.47
2019-03-19T18:10:52.160Z,14.70
2019-03-19T18:13:25.232Z,21.03
2019-03-19T18:15:57.562Z,15.97
2019-03-19T18:18:29.456Z,17.67
2019-03-19T18:21:01.734Z,9.93
2019-03-19T18:23:34.208Z,16.40
2019-03-19T18:26:08.197Z,11.43
2019-03-19T18:28:40.448Z,12.43
2019-03-19T18:31:17.140Z,12.37
2019-03-19T18:33:58.202Z,15.27
2019-03-19T18:36:36.977Z,13.30
2019-03-19T18:39:11.407Z,19.43
2019-03-19T18:41:45.567Z,17.70
2019-03-19T18:44:20.028Z,12.97
2019-03-19T18:46:53.360Z,16.67
2019-03-19T18:49:26.314Z,13.07
2019-03-19T18:52:04.798Z,13.30
2019-03-19T18:54:37.403Z,13.67
2019-03-19T18:57:11.622Z,15.43
2019-03-19T18:59:43.722Z,11.70
2019-03-19T19:02:15.902Z,11.27
2019-03-19T19:04:48.441Z,10.80
2019-03-19T19:07:22.236Z,11.97
2019-03-19T19:09:56.837Z,16.00
2019-03-19T19:12:28.731Z,15.47
2019-03-19T19:15:02.639Z,11.97
2019-03-19T19:17:34.906Z,11.97
2019-03-19T19:20:07.633Z,14.87
2019-03-19T19:22:42.949Z,18.70
2019-03-19T19:25:15.393Z,27.10
2019-03-19T19:27:48.173Z,26.30
2019-03-19T19:30:20.715Z,20.33
2019-03-19T19:33:00.921Z,21.90
2019-03-19T19:35:28.512Z,26.47
2019-03-19T19:38:03.115Z,24.67
2019-03-19T19:40:34.600Z,21.20
2019-03-19T19:43:06.587Z,18.70
2019-03-19T19:45:38.632Z,18.83
2019-03-19T19:48:10.913Z,22.00
2019-03-19T19:50:42.973Z,18.03
2019-03-19T19:53:16.104Z,17.37
2019-03-19T19:55:48.557Z,16.53
2019-03-19T19:58:20.580Z,12.03
2019-03-19T20:00:52.502Z,15.77
2019-03-19T20:03:24.805Z,14.77
2019-03-19T20:05:58.556Z,14.57
2019-03-19T20:08:30.751Z,15.43
2019-03-19T20:11:03.301Z,17.17
2019-03-19T20:16:47.025Z,13.63
2019-03-19T20:19:45.607Z,16.63
2019-03-19T20:22:22.296Z,17.30
2019-03-19T20:24:55.283Z,16.13
2019-03-19T20:28:48.830Z,9.10
2019-03-19T20:30:53.909Z,21.77
2019-03-19T20:33:26.502Z,17.00
2019-03-19T20:36:00.199Z,12.37
2019-03-19T20:38:32.559Z,14.53
2019-03-19T20:41:05.273Z,15.83
2019-03-19T20:43:42.530Z,23.87
2019-03-19T20:46:21.116Z,24.27
2019-03-19T20:48:55.277Z,15.80
2019-03-19T20:51:27.879Z,16.23
2019-03-19T20:54:04.822Z,20.30
2019-03-19T20:56:36.458Z,22.33
2019-03-19T20:59:08.239Z,14.70
2019-03-19T21:01:40.816Z,18.70
2019-03-19T21:04:12.518Z,17.73
2019-03-19T21:06:44.673Z,19.30
2019-03-19T21:09:22.977Z,15.53
2019-03-19T21:12:01.610Z,17.63
2019-03-19T21:14:36.883Z,17.50
2019-03-19T21:17:14.721Z,19.27
2019-03-19T21:19:53.116Z,13.80
2019-03-19T21:22:29.194Z,21.30
2019-03-19T21:25:07.271Z,15.70
2019-03-19T21:27:43.246Z,14.17
2019-03-19T21:30:23.799Z,11.67
2019-03-19T21:32:57.196Z,16.67
2019-03-19T21:35:29.767Z,17.60
2019-03-19T21:38:02.745Z,20.63
2019-03-19T21:40:37.042Z,15.70
2019-03-19T21:43:12.307Z,15.87
2019-03-19T21:45:46.753Z,17.20
2019-03-19T21:48:32.259Z,18.80
2019-03-19T21:51:07.979Z,18.30
2019-03-19T21:53:45.997Z,23.57
2019-03-19T21:56:20.449Z,19.70
2019-03-19T21:58:57.466Z,23.50
2019-03-19T22:01:35.338Z,14.90
2019-03-19T22:04:08.424Z,20.67
2019-03-19T22:06:40.235Z,19.13
2019-03-19T22:09:12.261Z,18.60
2019-03-19T22:11:44.229Z,23.70
2019-03-19T22:14:17.333Z,15.57
2019-03-19T22:16:49.554Z,16.53
2019-03-19T22:19:24.725Z,15.27
2019-03-19T22:21:56.471Z,21.20
2019-03-19T22:24:29.861Z,23.13
2019-03-19T22:27:02.442Z,25.63
2019-03-19T22:29:34.535Z,16.27
2019-03-19T22:32:06.778Z,15.30
2019-03-19T22:34:38.742Z,19.37
2019-03-19T22:37:10.571Z,18.77
2019-03-19T22:39:42.791Z,17.90
2019-03-19T22:42:15.151Z,21.87
2019-03-19T22:44:48.566Z,16.77
2019-03-19T22:47:21.469Z,26.90
2019-03-19T22:49:53.747Z,17.87
2019-03-19T22:52:25.945Z,20.33
2019-03-19T22:54:58.176Z,16.63
2019-03-19T22:57:30.376Z,22.27
2019-03-19T23:00:02.312Z,14.63
2019-03-19T23:02:41.111Z,17.83
2019-03-19T23:05:20.317Z,18.40
2019-03-19T23:07:53.655Z,15.97
2019-03-19T23:10:29.896Z,17.77
2019-03-19T23:13:05.321Z,18.27
2019-03-19T23:15:41.478Z,19.63
2019-03-19T23:18:13.720Z,19.97
2019-03-19T23:20:49.643Z,21.40
2019-03-19T23:23:24.531Z,21.43
2019-03-19T23:25:58.035Z,22.43
2019-03-19T23:28:30.158Z,21.03
2019-03-19T23:31:02.357Z,24.50
2019-03-19T23:33:34.568Z,25.20
2019-03-19T23:36:06.838Z,23.50
2019-03-19T23:38:39.396Z,25.23
2019-03-19T23:41:11.487Z,26.23
2019-03-19T23:43:43.858Z,29.90
2019-03-19T23:46:16.196Z,28.10
2019-03-19T23:48:49.353Z,24.87
2019-03-19T23:51:23.452Z,29.50
2019-03-19T23:53:56.011Z,20.83
2019-03-19T23:56:28.415Z,20.03
2019-03-19T23:59:00.410Z,19.90
